createdAt,value
2018-04-26T00:00:40.125Z,1006.5
2018-04-26T00:01:40.766Z,1006.5
2018-04-26T00:02:41.407Z,1006.5
2018-04-26T00:03:42.056Z,1006.5
2018-04-26T00:04:42.696Z,1006.5
2018-04-26T00:05:43.335Z,1006.4
2018-04-26T00:06:43.977Z,1006.4
2018-04-26T00:07:44.617Z,1006.4
2018-04-26T00:08:45.257Z,1006.4
2018-04-26T00:09:45.997Z,1006.4
2018-04-26T00:10:46.640Z,1006.4
2018-04-26T00:11:47.280Z,1006.4
2018-04-26T00:12:47.921Z,1006.4
2018-04-26T00:13:48.561Z,1006.4
2018-04-26T00:14:49.201Z,1006.4
2018-04-26T00:15:49.844Z,1006.3
2018-04-26T00:16:50.487Z,1006.4
2018-04-26T00:17:51.126Z,1006.4
2018-04-26T00:18:51.766Z,1006.3
2018-04-26T00:19:52.409Z,1006.3
2018-04-26T00:20:53.049Z,1006.3
2018-04-26T00:21:53.692Z,1006.3
2018-04-26T00:22:54.332Z,1006.3
2018-04-26T00:23:54.973Z,1006.3
2018-04-26T00:24:56.170Z,1006.4
2018-04-26T00:25:56.812Z,1006.3
2018-04-26T00:26:57.453Z,1006.3
2018-04-26T00:27:58.095Z,1006.4
2018-04-26T00:28:58.735Z,1006.3
2018-04-26T00:29:59.375Z,1006.3
2018-04-26T00:31:00.020Z,1006.4
2018-04-26T00:32:00.664Z,1006.4
2018-04-26T00:33:01.304Z,1006.4
2018-04-26T00:34:01.944Z,1006.4
2018-04-26T00:35:02.613Z,1006.3
2018-04-26T00:36:03.230Z,1006.3
2018-04-26T00:37:03.870Z,1006.3
2018-04-26T00:38:04.514Z,1006.3
2018-04-26T00:39:05.150Z,1006.3
2018-04-26T00:40:06.044Z,1006.3
2018-04-26T00:41:06.681Z,1006.3
2018-04-26T00:42:07.323Z,1006.3
2018-04-26T00:43:07.963Z,1006.3
2018-04-26T00:44:08.604Z,1006.3
2018-04-26T00:45:09.245Z,1006.3
2018-04-26T00:46:09.886Z,1006.3
2018-04-26T00:47:10.533Z,1006.3
2018-04-26T00:48:11.177Z,1006.3
2018-04-26T00:49:11.817Z,1006.3
2018-04-26T00:50:12.459Z,1006.3
2018-04-26T00:51:13.097Z,1006.3
2018-04-26T00:52:13.785Z,1006.3
2018-04-26T00:53:14.430Z,1006.3
2018-04-26T00:54:15.065Z,1006.3
2018-04-26T00:55:15.804Z,1006.3
2018-04-26T00:56:16.444Z,1006.3
2018-04-26T00:57:17.088Z,1006.3
2018-04-26T00:58:17.727Z,1006.3
2018-04-26T00:59:18.368Z,1006.3
2018-04-26T01:00:19.013Z,1006.3
2018-04-26T01:01:19.656Z,1006.2
2018-04-26T01:02:20.297Z,1006.3
2018-04-26T01:03:20.937Z,1006.3
2018-04-26T01:04:21.577Z,1006.3
2018-04-26T01:05:22.220Z,1006.2
2018-04-26T01:06:22.859Z,1006.2
2018-04-26T01:07:23.502Z,1006.2
2018-04-26T01:08:24.142Z,1006.2
2018-04-26T01:09:24.785Z,1006.3
2018-04-26T01:10:25.524Z,1006.3
2018-04-26T01:11:26.166Z,1006.2
2018-04-26T01:12:26.808Z,1006.3
2018-04-26T01:13:27.449Z,1006.3
2018-04-26T01:14:28.090Z,1006.3
2018-04-26T01:15:28.731Z,1006.2
2018-04-26T01:16:29.371Z,1006.2
2018-04-26T01:17:30.012Z,1006.2
2018-04-26T01:18:30.654Z,1006.3
2018-04-26T01:19:31.294Z,1006.3
2018-04-26T01:20:31.936Z,1006.2
2018-04-26T01:21:32.577Z,1006.2
2018-04-26T01:22:33.221Z,1006.2
2018-04-26T01:23:33.860Z,1006.2
2018-04-26T01:24:34.752Z,1006.2
2018-04-26T01:25:35.393Z,1006.2
2018-04-26T01:26:36.041Z,1006.3
2018-04-26T01:27:36.686Z,1006.3
2018-04-26T01:28:37.324Z,1006.3
2018-04-26T01:29:37.965Z,1006.3
2018-04-26T01:30:38.607Z,1006.3
2018-04-26T01:31:39.247Z,1006.3
2018-04-26T01:32:39.889Z,1006.3
2018-04-26T01:33:40.579Z,1006.3
2018-04-26T01:34:41.175Z,1006.3
2018-04-26T01:35:41.814Z,1006.3
2018-04-26T01:36:42.456Z,1006.3
2018-04-26T01:37:43.095Z,1006.3
2018-04-26T01:38:43.737Z,1006.3
2018-04-26T01:39:44.526Z,1006.3
2018-04-26T01:40:45.166Z,1006.3
2018-04-26T01:41:45.808Z,1006.3
2018-04-26T01:42:46.447Z,1006.3
2018-04-26T01:43:47.088Z,1006.3
2018-04-26T01:44:47.730Z,1006.3
2018-04-26T01:45:48.370Z,1006.3
2018-04-26T01:46:49.017Z,1006.3
2018-04-26T01:47:49.657Z,1006.4
2018-04-26T01:48:50.296Z,1006.3
2018-04-26T01:49:50.937Z,1006.3
2018-04-26T01:50:51.578Z,1006.3
2018-04-26T01:51:52.225Z,1006.3
2018-04-26T01:52:52.860Z,1006.3
2018-04-26T01:53:53.505Z,1006.3
2018-04-26T01:54:54.345Z,1006.3
2018-04-26T01:55:54.986Z,1006.4
2018-04-26T01:56:55.628Z,1006.4
2018-04-26T01:57:56.269Z,1006.4
2018-04-26T01:58:56.911Z,1006.4
2018-04-26T01:59:57.552Z,1006.5
2018-04-26T02:00:58.200Z,1006.4
2018-04-26T02:01:58.842Z,1006.4
2018-04-26T02:02:59.482Z,1006.3
2018-04-26T02:04:00.123Z,1006.4
2018-04-26T02:05:00.762Z,1006.4
2018-04-26T02:06:01.406Z,1006.4
2018-04-26T02:07:02.046Z,1006.4
2018-04-26T02:08:02.686Z,1006.4
2018-04-26T02:09:03.326Z,1006.4
2018-04-26T02:10:04.218Z,1006.3
2018-04-26T02:11:04.870Z,1006.3
2018-04-26T02:12:05.593Z,1006.3
2018-04-26T02:13:06.234Z,1006.3
2018-04-26T02:14:06.874Z,1006.2
2018-04-26T02:15:07.513Z,1006.3
2018-04-26T02:16:08.154Z,1006.2
2018-04-26T02:17:08.793Z,1006.3
2018-04-26T02:18:09.434Z,1006.4
2018-04-26T02:19:10.076Z,1006.3
2018-04-26T02:20:10.719Z,1006.3
2018-04-26T02:21:11.360Z,1006.4
2018-04-26T02:22:12.000Z,1006.3
2018-04-26T02:23:12.641Z,1006.3
2018-04-26T02:24:13.884Z,1006.3
2018-04-26T02:25:14.523Z,1006.3
2018-04-26T02:26:15.165Z,1006.3
2018-04-26T02:27:15.805Z,1006.3
2018-04-26T02:28:16.450Z,1006.3
2018-04-26T02:29:17.084Z,1006.3
2018-04-26T02:30:17.737Z,1006.3
2018-04-26T02:31:18.366Z,1006.3
2018-04-26T02:32:19.021Z,1006.3
2018-04-26T02:33:19.672Z,1006.3
2018-04-26T02:34:20.311Z,1006.3
2018-04-26T02:35:20.951Z,1006.3
2018-04-26T02:36:21.592Z,1006.3
2018-04-26T02:37:22.240Z,1006.3
2018-04-26T02:38:22.874Z,1006.3
2018-04-26T02:39:23.770Z,1006.3
2018-04-26T02:40:24.407Z,1006.3
2018-04-26T02:41:25.048Z,1006.3
2018-04-26T02:42:25.689Z,1006.3
2018-04-26T02:43:26.330Z,1006.3
2018-04-26T02:44:26.970Z,1006.3
2018-04-26T02:45:27.611Z,1006.3
2018-04-26T02:46:28.252Z,1006.3
2018-04-26T02:47:28.895Z,1006.3
2018-04-26T02:48:29.531Z,1006.3
2018-04-26T02:49:30.172Z,1006.3
2018-04-26T02:50:30.817Z,1006.3
2018-04-26T02:51:31.455Z,1006.3
2018-04-26T02:52:32.095Z,1006.3
2018-04-26T02:53:32.744Z,1006.2
2018-04-26T02:54:33.485Z,1006.3
2018-04-26T02:55:34.125Z,1006.3
2018-04-26T02:56:34.766Z,1006.2
2018-04-26T02:57:35.406Z,1006.2
2018-04-26T02:58:36.056Z,1006.3
2018-04-26T02:59:36.695Z,1006.2
2018-04-26T03:00:37.342Z,1006.2
2018-04-26T03:01:37.985Z,1006.2
2018-04-26T03:02:38.621Z,1006.2
2018-04-26T03:03:39.261Z,1006.2
2018-04-26T03:04:39.902Z,1006.2
2018-04-26T03:05:40.542Z,1006.2
2018-04-26T03:06:41.217Z,1006.1
2018-04-26T03:07:41.830Z,1006.3
2018-04-26T03:08:42.470Z,1006.2
2018-04-26T03:09:43.361Z,1006.2
2018-04-26T03:10:44.007Z,1006.2
2018-04-26T03:11:44.646Z,1006.3
2018-04-26T03:12:45.287Z,1006.3
2018-04-26T03:13:45.927Z,1006.3
2018-04-26T03:14:46.660Z,1006.3
2018-04-26T03:15:47.211Z,1006.2
2018-04-26T03:16:47.850Z,1006.3
2018-04-26T03:17:48.491Z,1006.3
2018-04-26T03:18:49.132Z,1006.2
2018-04-26T03:19:49.772Z,1006.3
2018-04-26T03:20:50.412Z,1006.2
2018-04-26T03:21:51.054Z,1006.3
2018-04-26T03:22:51.694Z,1006.3
2018-04-26T03:23:52.334Z,1006.3
2018-04-26T03:24:53.528Z,1006.3
2018-04-26T03:25:54.167Z,1006.2
2018-04-26T03:26:54.813Z,1006.2
2018-04-26T03:27:55.455Z,1006.3
2018-04-26T03:28:56.095Z,1006.3
2018-04-26T03:29:56.734Z,1006.2
2018-04-26T03:30:57.435Z,1006.2
2018-04-26T03:31:58.016Z,1006.2
2018-04-26T03:32:58.656Z,1006.3
2018-04-26T03:33:59.298Z,1006.3
2018-04-26T03:34:59.939Z,1006.3
2018-04-26T03:36:00.581Z,1006.4
2018-04-26T03:37:01.226Z,1006.3
2018-04-26T03:38:01.866Z,1006.3
2018-04-26T03:39:02.507Z,1006.4
2018-04-26T03:40:03.399Z,1006.4
2018-04-26T03:41:04.044Z,1006.4
2018-04-26T03:42:04.683Z,1006.4
2018-04-26T03:43:05.323Z,1006.4
2018-04-26T03:44:05.963Z,1006.4
2018-04-26T03:45:06.605Z,1006.4
2018-04-26T03:46:07.245Z,1006.3
2018-04-26T03:47:07.889Z,1006.3
2018-04-26T03:48:08.527Z,1006.3
2018-04-26T03:49:09.172Z,1006.3
2018-04-26T03:50:09.824Z,1006.3
2018-04-26T03:51:10.456Z,1006.3
2018-04-26T03:52:11.167Z,1006.3
2018-04-26T03:53:11.807Z,1006.3
2018-04-26T03:54:12.446Z,1006.3
2018-04-26T03:55:13.185Z,1006.3
2018-04-26T03:56:13.831Z,1006.3
2018-04-26T03:57:14.465Z,1006.3
2018-04-26T03:58:15.105Z,1006.3
2018-04-26T03:59:15.748Z,1006.3
2018-04-26T04:00:16.387Z,1006.3
2018-04-26T04:01:17.027Z,1006.3
2018-04-26T04:02:17.668Z,1006.3
2018-04-26T04:03:18.308Z,1006.3
2018-04-26T04:04:18.951Z,1006.3
2018-04-26T04:05:19.588Z,1006.3
2018-04-26T04:06:20.228Z,1006.3
2018-04-26T04:07:20.869Z,1006.3
2018-04-26T04:08:21.511Z,1006.3
2018-04-26T04:09:22.155Z,1006.3
2018-04-26T04:10:22.894Z,1006.3
2018-04-26T04:11:23.535Z,1006.3
2018-04-26T04:12:24.175Z,1006.3
2018-04-26T04:13:24.816Z,1006.4
2018-04-26T04:14:25.456Z,1006.4
2018-04-26T04:15:26.096Z,1006.5
2018-04-26T04:16:26.735Z,1006.6
2018-04-26T04:17:27.373Z,1006.6
2018-04-26T04:18:28.012Z,1006.7
2018-04-26T04:19:28.650Z,1006.6
2018-04-26T04:20:29.289Z,1006.7
2018-04-26T04:21:29.929Z,1006.7
2018-04-26T04:22:30.569Z,1006.6
2018-04-26T04:23:31.210Z,1006.6
2018-04-26T04:24:32.199Z,1006.7
2018-04-26T04:25:32.839Z,1006.6
2018-04-26T04:26:33.477Z,1006.6
2018-04-26T04:27:34.117Z,1006.6
2018-04-26T04:28:34.755Z,1006.6
2018-04-26T04:29:35.397Z,1006.6
2018-04-26T04:30:36.038Z,1006.7
2018-04-26T04:31:36.679Z,1006.6
2018-04-26T04:32:37.319Z,1006.6
2018-04-26T04:33:37.959Z,1006.6
2018-04-26T04:34:38.599Z,1006.6
2018-04-26T04:35:39.240Z,1006.6
2018-04-26T04:36:39.880Z,1006.7
2018-04-26T04:37:40.522Z,1006.7
2018-04-26T04:38:41.218Z,1006.7
2018-04-26T04:39:41.902Z,1006.8
2018-04-26T04:40:42.543Z,1006.7
2018-04-26T04:41:43.183Z,1006.7
2018-04-26T04:42:43.824Z,1006.7
2018-04-26T04:43:44.464Z,1006.7
2018-04-26T04:44:45.103Z,1006.7
2018-04-26T04:45:45.745Z,1006.7
2018-04-26T04:46:46.384Z,1006.7
2018-04-26T04:47:47.023Z,1006.7
2018-04-26T04:48:47.661Z,1006.7
2018-04-26T04:49:48.307Z,1006.7
2018-04-26T04:50:48.938Z,1006.7
2018-04-26T04:51:49.579Z,1006.7
2018-04-26T04:52:50.222Z,1006.7
2018-04-26T04:53:50.858Z,1006.8
2018-04-26T04:54:51.753Z,1006.8
2018-04-26T04:55:52.397Z,1006.8
2018-04-26T04:56:53.044Z,1006.8
2018-04-26T04:57:53.677Z,1006.8
2018-04-26T04:58:54.315Z,1006.8
2018-04-26T04:59:55.207Z,1006.9
2018-04-26T05:00:55.846Z,1006.9
2018-04-26T05:01:56.631Z,1006.8
2018-04-26T05:02:57.237Z,1006.9
2018-04-26T05:03:57.878Z,1006.9
2018-04-26T05:04:58.522Z,1006.9
2018-04-26T05:05:59.161Z,1006.9
2018-04-26T05:06:59.803Z,1006.9
2018-04-26T05:08:00.442Z,1006.9
2018-04-26T05:09:01.082Z,1007.0
2018-04-26T05:10:01.728Z,1007.0
2018-04-26T05:11:02.369Z,1007.0
2018-04-26T05:12:03.009Z,1007.0
2018-04-26T05:13:03.649Z,1007.0
2018-04-26T05:14:04.290Z,1007.0
2018-04-26T05:15:04.932Z,1007.1
2018-04-26T05:16:05.571Z,1007.1
2018-04-26T05:17:06.462Z,1007.1
2018-04-26T05:18:07.103Z,1007.2
2018-04-26T05:19:07.743Z,1007.1
2018-04-26T05:20:08.384Z,1007.1
2018-04-26T05:21:09.024Z,1007.2
2018-04-26T05:22:09.661Z,1007.2
2018-04-26T05:23:10.405Z,1007.3
2018-04-26T05:24:11.244Z,1007.2
2018-04-26T05:25:11.980Z,1007.2
2018-04-26T05:26:12.618Z,1007.2
2018-04-26T05:27:13.263Z,1007.3
2018-04-26T05:28:13.909Z,1007.3
2018-04-26T05:29:14.546Z,1007.3
2018-04-26T05:30:15.184Z,1007.3
2018-04-26T05:31:15.824Z,1007.4
2018-04-26T05:32:16.496Z,1007.3
2018-04-26T05:33:17.133Z,1007.4
2018-04-26T05:34:17.769Z,1007.4
2018-04-26T05:35:18.409Z,1007.4
2018-04-26T05:36:19.052Z,1007.4
2018-04-26T05:37:19.690Z,1007.4
2018-04-26T05:38:20.334Z,1007.4
2018-04-26T05:39:20.976Z,1007.4
2018-04-26T05:40:21.717Z,1007.4
2018-04-26T05:41:22.360Z,1007.4
2018-04-26T05:42:23.105Z,1007.4
2018-04-26T05:43:23.745Z,1007.3
2018-04-26T05:44:24.386Z,1007.4
2018-04-26T05:45:25.032Z,1007.4
2018-04-26T05:46:25.668Z,1007.4
2018-04-26T05:47:26.431Z,1007.5
2018-04-26T05:48:27.049Z,1007.5
2018-04-26T05:49:27.692Z,1007.5
2018-04-26T05:50:28.327Z,1007.5
2018-04-26T05:51:28.972Z,1007.5
2018-04-26T05:52:29.606Z,1007.5
2018-04-26T05:53:30.245Z,1007.5
2018-04-26T05:54:30.893Z,1007.5
2018-04-26T05:55:31.521Z,1007.5
2018-04-26T05:56:32.164Z,1007.5
2018-04-26T05:57:33.104Z,1007.6
2018-04-26T05:58:33.744Z,1007.5
2018-04-26T05:59:34.388Z,1007.6
2018-04-26T06:00:35.029Z,1007.6
2018-04-26T06:01:35.867Z,1007.6
2018-04-26T06:02:36.505Z,1007.6
2018-04-26T06:03:37.200Z,1007.6
2018-04-26T06:04:37.783Z,1007.6
2018-04-26T06:05:38.429Z,1007.7
2018-04-26T06:06:39.218Z,1007.6
2018-04-26T06:07:39.857Z,1007.5
2018-04-26T06:08:40.498Z,1007.6
2018-04-26T06:09:41.141Z,1007.6
2018-04-26T06:10:41.780Z,1007.6
2018-04-26T06:11:42.417Z,1007.7
2018-04-26T06:12:43.058Z,1007.7
2018-04-26T06:13:43.700Z,1007.7
2018-04-26T06:14:44.339Z,1007.7
2018-04-26T06:15:44.977Z,1007.8
2018-04-26T06:16:45.769Z,1007.8
2018-04-26T06:17:46.360Z,1007.8
2018-04-26T06:18:47.005Z,1007.8
2018-04-26T06:19:47.654Z,1007.8
2018-04-26T06:20:48.283Z,1007.8
2018-04-26T06:21:48.929Z,1007.8
2018-04-26T06:22:49.664Z,1007.8
2018-04-26T06:23:50.304Z,1007.8
2018-04-26T06:24:51.151Z,1007.8
2018-04-26T06:25:51.792Z,1007.9
2018-04-26T06:26:52.431Z,1007.9
2018-04-26T06:27:53.072Z,1007.9
2018-04-26T06:28:53.711Z,1007.9
2018-04-26T06:29:54.353Z,1007.9
2018-04-26T06:30:54.992Z,1008.0
2018-04-26T06:31:55.732Z,1007.9
2018-04-26T06:32:56.372Z,1008.0
2018-04-26T06:33:57.013Z,1008.0
2018-04-26T06:34:57.653Z,1008.0
2018-04-26T06:35:58.294Z,1008.0
2018-04-26T06:36:58.933Z,1008.0
2018-04-26T06:37:59.572Z,1007.9
2018-04-26T06:39:00.214Z,1007.9
2018-04-26T06:40:00.852Z,1007.9
2018-04-26T06:41:01.490Z,1007.9
2018-04-26T06:42:02.131Z,1008.0
2018-04-26T06:43:02.782Z,1007.9
2018-04-26T06:44:03.411Z,1008.0
2018-04-26T06:45:04.053Z,1008.0
2018-04-26T06:46:04.695Z,1007.9
2018-04-26T06:47:05.481Z,1008.0
2018-04-26T06:48:06.273Z,1008.0
2018-04-26T06:49:07.110Z,1008.0
2018-04-26T06:50:07.750Z,1008.0
2018-04-26T06:51:08.389Z,1008.1
2018-04-26T06:52:09.065Z,1008.1
2018-04-26T06:53:09.710Z,1008.1
2018-04-26T06:54:10.345Z,1008.0
2018-04-26T06:55:10.988Z,1008.2
2018-04-26T06:56:11.625Z,1008.2
2018-04-26T06:57:12.272Z,1008.3
2018-04-26T06:58:13.013Z,1008.2
2018-04-26T06:59:13.655Z,1008.3
2018-04-26T07:00:14.295Z,1008.3
2018-04-26T07:01:14.935Z,1008.3
2018-04-26T07:02:15.677Z,1008.2
2018-04-26T07:03:16.316Z,1008.2
2018-04-26T07:04:16.955Z,1008.3
2018-04-26T07:05:17.597Z,1008.4
2018-04-26T07:06:18.341Z,1008.3
2018-04-26T07:07:18.985Z,1008.3
2018-04-26T07:08:19.627Z,1008.2
2018-04-26T07:09:20.264Z,1008.3
2018-04-26T07:10:20.905Z,1008.3
2018-04-26T07:11:21.549Z,1008.3
2018-04-26T07:12:22.200Z,1008.3
2018-04-26T07:13:22.840Z,1008.3
2018-04-26T07:14:23.479Z,1008.4
2018-04-26T07:15:24.121Z,1008.4
2018-04-26T07:16:24.762Z,1008.5
2018-04-26T07:17:25.407Z,1008.4
2018-04-26T07:18:26.045Z,1008.4
2018-04-26T07:19:26.683Z,1008.4
2018-04-26T07:20:27.324Z,1008.4
2018-04-26T07:21:27.970Z,1008.4
2018-04-26T07:22:28.610Z,1008.5
2018-04-26T07:23:29.250Z,1008.5
2018-04-26T07:24:29.991Z,1008.5
2018-04-26T07:25:30.633Z,1008.5
2018-04-26T07:26:31.274Z,1008.5
2018-04-26T07:27:31.916Z,1008.5
2018-04-26T07:28:32.556Z,1008.6
2018-04-26T07:29:33.202Z,1008.6
2018-04-26T07:30:33.839Z,1008.5
2018-04-26T07:31:34.582Z,1008.6
2018-04-26T07:32:35.334Z,1008.6
2018-04-26T07:33:35.973Z,1008.6
2018-04-26T07:34:36.616Z,1008.6
2018-04-26T07:35:37.258Z,1008.6
2018-04-26T07:36:37.897Z,1008.6
2018-04-26T07:37:38.540Z,1008.6
2018-04-26T07:38:39.280Z,1008.6
2018-04-26T07:39:39.920Z,1008.6
2018-04-26T07:40:40.562Z,1008.6
2018-04-26T07:41:41.204Z,1008.6
2018-04-26T07:42:41.847Z,1008.6
2018-04-26T07:43:42.488Z,1008.6
2018-04-26T07:44:43.312Z,1008.6
2018-04-26T07:45:44.075Z,1008.7
2018-04-26T07:46:44.742Z,1008.7
2018-04-26T07:47:45.356Z,1008.7
2018-04-26T07:48:46.197Z,1008.8
2018-04-26T07:49:46.837Z,1008.6
2018-04-26T07:50:47.476Z,1008.8
2018-04-26T07:51:48.116Z,1008.7
2018-04-26T07:52:48.757Z,1008.7
2018-04-26T07:53:49.400Z,1008.7
2018-04-26T07:54:50.040Z,1008.7
2018-04-26T07:55:50.780Z,1008.8
2018-04-26T07:56:51.522Z,1008.7
2018-04-26T07:57:52.165Z,1008.8
2018-04-26T07:58:52.805Z,1008.7
2018-04-26T07:59:53.449Z,1008.7
2018-04-26T08:00:54.091Z,1008.8
2018-04-26T08:01:54.733Z,1008.8
2018-04-26T08:02:55.372Z,1008.9
2018-04-26T08:03:56.013Z,1008.8
2018-04-26T08:04:56.662Z,1008.9
2018-04-26T08:05:57.309Z,1008.8
2018-04-26T08:06:57.951Z,1009.0
2018-04-26T08:07:58.592Z,1008.9
2018-04-26T08:08:59.243Z,1008.9
2018-04-26T08:09:59.879Z,1008.9
2018-04-26T08:11:00.520Z,1008.9
2018-04-26T08:12:01.162Z,1008.9
2018-04-26T08:13:01.803Z,1008.9
2018-04-26T08:14:02.456Z,1008.9
2018-04-26T08:15:03.091Z,1009.0
2018-04-26T08:16:03.731Z,1008.9
2018-04-26T08:17:04.572Z,1008.9
2018-04-26T08:18:05.513Z,1008.8
2018-04-26T08:19:06.157Z,1009.0
2018-04-26T08:20:06.798Z,1008.9
2018-04-26T08:21:07.440Z,1008.9
2018-04-26T08:22:08.180Z,1008.9
2018-04-26T08:23:08.920Z,1008.9
2018-04-26T08:24:09.660Z,1009.1
2018-04-26T08:25:10.403Z,1009.0
2018-04-26T08:26:11.045Z,1009.0
2018-04-26T08:27:11.686Z,1009.0
2018-04-26T08:28:12.328Z,1009.1
2018-04-26T08:29:13.069Z,1009.0
2018-04-26T08:30:13.860Z,1009.1
2018-04-26T08:31:14.602Z,1009.1
2018-04-26T08:32:15.517Z,1009.1
2018-04-26T08:33:16.157Z,1009.1
2018-04-26T08:34:16.798Z,1009.1
2018-04-26T08:35:17.440Z,1009.1
2018-04-26T08:36:18.081Z,1009.1
2018-04-26T08:37:18.741Z,1009.2
2018-04-26T08:38:19.365Z,1009.1
2018-04-26T08:39:20.008Z,1009.1
2018-04-26T08:40:20.644Z,1009.2
2018-04-26T08:41:21.286Z,1009.2
2018-04-26T08:42:21.925Z,1009.2
2018-04-26T08:43:22.667Z,1009.3
2018-04-26T08:44:23.309Z,1009.2
2018-04-26T08:45:23.949Z,1009.2
2018-04-26T08:46:24.592Z,1009.2
2018-04-26T08:47:25.335Z,1009.1
2018-04-26T08:48:25.974Z,1009.2
2018-04-26T08:49:26.620Z,1009.1
2018-04-26T08:50:27.261Z,1009.1
2018-04-26T08:51:28.009Z,1009.1
2018-04-26T08:52:28.650Z,1009.1
2018-04-26T08:53:29.291Z,1009.2
2018-04-26T08:54:30.037Z,1009.2
2018-04-26T08:55:30.683Z,1009.2
2018-04-26T08:56:31.330Z,1009.2
2018-04-26T08:57:31.971Z,1009.2
2018-04-26T08:58:32.611Z,1009.2
2018-04-26T08:59:33.254Z,1009.1
2018-04-26T09:00:33.901Z,1009.2
2018-04-26T09:01:34.770Z,1009.2
2018-04-26T09:02:35.386Z,1009.2
2018-04-26T09:03:36.025Z,1009.2
2018-04-26T09:04:36.666Z,1009.1
2018-04-26T09:05:37.309Z,1009.1
2018-04-26T09:06:37.985Z,1009.2
2018-04-26T09:07:38.591Z,1009.2
2018-04-26T09:08:39.231Z,1009.2
2018-04-26T09:09:39.872Z,1009.2
2018-04-26T09:10:40.511Z,1009.4
2018-04-26T09:11:41.152Z,1009.3
2018-04-26T09:12:41.793Z,1009.3
2018-04-26T09:13:42.435Z,1009.3
2018-04-26T09:14:43.176Z,1009.4
2018-04-26T09:15:43.876Z,1009.3
2018-04-26T09:16:44.459Z,1009.3
2018-04-26T09:17:45.100Z,1009.4
2018-04-26T09:18:45.742Z,1009.4
2018-04-26T09:19:46.383Z,1009.5
2018-04-26T09:20:47.026Z,1009.5
2018-04-26T09:21:47.765Z,1009.6
2018-04-26T09:22:48.505Z,1009.6
2018-04-26T09:23:49.144Z,1009.6
2018-04-26T09:24:49.887Z,1009.7
2018-04-26T09:25:50.529Z,1009.6
2018-04-26T09:26:51.271Z,1009.6
2018-04-26T09:27:51.914Z,1009.6
2018-04-26T09:28:52.756Z,1009.6
2018-04-26T09:29:53.545Z,1009.7
2018-04-26T09:30:54.186Z,1009.7
2018-04-26T09:31:54.928Z,1009.7
2018-04-26T09:32:55.572Z,1009.7
2018-04-26T09:33:56.322Z,1009.6
2018-04-26T09:34:56.955Z,1009.7
2018-04-26T09:35:57.598Z,1009.6
2018-04-26T09:36:58.589Z,1009.6
2018-04-26T09:37:59.480Z,1009.6
2018-04-26T09:39:00.125Z,1009.6
2018-04-26T09:40:00.767Z,1009.7
2018-04-26T09:41:01.505Z,1009.7
2018-04-26T09:42:02.146Z,1009.6
2018-04-26T09:43:02.790Z,1009.7
2018-04-26T09:44:03.432Z,1009.6
2018-04-26T09:45:04.174Z,1009.6
2018-04-26T09:46:04.814Z,1009.6
2018-04-26T09:47:05.459Z,1009.5
2018-04-26T09:48:06.100Z,1009.6
2018-04-26T09:49:06.744Z,1009.5
2018-04-26T09:50:07.385Z,1009.5
2018-04-26T09:51:08.026Z,1009.5
2018-04-26T09:52:08.720Z,1009.5
2018-04-26T09:53:09.360Z,1009.5
2018-04-26T09:54:10.000Z,1009.4
2018-04-26T09:55:10.641Z,1009.4
2018-04-26T09:56:11.282Z,1009.5
2018-04-26T09:57:11.922Z,1009.4
2018-04-26T09:58:12.563Z,1009.5
2018-04-26T09:59:13.356Z,1009.4
2018-04-26T10:00:13.998Z,1009.4
2018-04-26T10:01:14.646Z,1009.4
2018-04-26T10:02:15.387Z,1009.5
2018-04-26T10:03:16.028Z,1009.5
2018-04-26T10:04:16.819Z,1009.5
2018-04-26T10:05:17.459Z,1009.5
2018-04-26T10:06:18.200Z,1009.5
2018-04-26T10:07:18.842Z,1009.5
2018-04-26T10:08:19.488Z,1009.5
2018-04-26T10:09:20.128Z,1009.5
2018-04-26T10:10:20.871Z,1009.4
2018-04-26T10:11:21.514Z,1009.4
2018-04-26T10:12:22.209Z,1009.4
2018-04-26T10:13:22.852Z,1009.4
2018-04-26T10:14:23.493Z,1009.4
2018-04-26T10:15:24.135Z,1009.4
2018-04-26T10:16:24.877Z,1009.4
2018-04-26T10:17:25.519Z,1009.3
2018-04-26T10:18:26.159Z,1009.4
2018-04-26T10:19:26.800Z,1009.4
2018-04-26T10:20:27.445Z,1009.5
2018-04-26T10:21:28.079Z,1009.5
2018-04-26T10:22:28.820Z,1009.5
2018-04-26T10:23:29.463Z,1009.6
2018-04-26T10:24:30.306Z,1009.5
2018-04-26T10:25:30.947Z,1009.5
2018-04-26T10:26:31.588Z,1009.6
2018-04-26T10:27:32.227Z,1009.6
2018-04-26T10:28:32.867Z,1009.6
2018-04-26T10:29:33.610Z,1009.6
2018-04-26T10:30:34.351Z,1009.6
2018-04-26T10:31:35.096Z,1009.6
2018-04-26T10:32:35.834Z,1009.6
2018-04-26T10:33:36.477Z,1009.6
2018-04-26T10:34:37.117Z,1009.6
2018-04-26T10:35:37.761Z,1009.5
2018-04-26T10:36:38.402Z,1009.6
2018-04-26T10:37:39.143Z,1009.5
2018-04-26T10:38:39.985Z,1009.5
2018-04-26T10:39:40.627Z,1009.5
2018-04-26T10:40:41.268Z,1009.5
2018-04-26T10:41:41.908Z,1009.4
2018-04-26T10:42:42.554Z,1009.5
2018-04-26T10:43:43.390Z,1009.6
2018-04-26T10:44:44.033Z,1009.6
2018-04-26T10:45:44.676Z,1009.5
2018-04-26T10:46:45.421Z,1009.5
2018-04-26T10:47:46.059Z,1009.6
2018-04-26T10:48:46.700Z,1009.5
2018-04-26T10:49:47.344Z,1009.5
2018-04-26T10:50:47.985Z,1009.5
2018-04-26T10:51:48.629Z,1009.5
2018-04-26T10:52:49.271Z,1009.4
2018-04-26T10:53:49.912Z,1009.5
2018-04-26T10:54:50.557Z,1009.6
2018-04-26T10:55:51.198Z,1009.6
2018-04-26T10:56:51.842Z,1009.6
2018-04-26T10:57:52.586Z,1009.6
2018-04-26T10:58:53.430Z,1009.5
2018-04-26T10:59:54.070Z,1009.6
2018-04-26T11:00:54.713Z,1009.7
2018-04-26T11:01:55.460Z,1009.6
2018-04-26T11:02:56.101Z,1009.7
2018-04-26T11:03:56.744Z,1009.7
2018-04-26T11:04:57.488Z,1009.7
2018-04-26T11:05:58.128Z,1009.6
2018-04-26T11:06:58.873Z,1009.7
2018-04-26T11:07:59.517Z,1009.5
2018-04-26T11:09:00.160Z,1009.6
2018-04-26T11:10:00.805Z,1009.7
2018-04-26T11:11:01.445Z,1009.8
2018-04-26T11:12:02.088Z,1009.7
2018-04-26T11:13:02.730Z,1009.7
2018-04-26T11:14:03.473Z,1009.7
2018-04-26T11:15:04.116Z,1009.7
2018-04-26T11:16:04.757Z,1009.7
2018-04-26T11:17:05.399Z,1009.8
2018-04-26T11:18:06.042Z,1009.7
2018-04-26T11:19:06.685Z,1009.7
2018-04-26T11:20:07.325Z,1009.9
2018-04-26T11:21:07.967Z,1009.9
2018-04-26T11:22:08.608Z,1009.8
2018-04-26T11:23:09.392Z,1009.8
2018-04-26T11:24:10.194Z,1009.8
2018-04-26T11:25:10.937Z,1009.9
2018-04-26T11:26:11.682Z,1009.9
2018-04-26T11:27:12.326Z,1009.9
2018-04-26T11:28:12.965Z,1009.8
2018-04-26T11:29:13.681Z,1009.9
2018-04-26T11:30:14.351Z,1009.8
2018-04-26T11:31:14.992Z,1009.9
2018-04-26T11:32:15.785Z,1009.8
2018-04-26T11:33:16.479Z,1009.9
2018-04-26T11:34:17.120Z,1009.8
2018-04-26T11:35:17.761Z,1009.8
2018-04-26T11:36:18.403Z,1009.7
2018-04-26T11:37:19.246Z,1009.7
2018-04-26T11:38:19.887Z,1009.7
2018-04-26T11:39:20.530Z,1009.7
2018-04-26T11:40:21.172Z,1009.7
2018-04-26T11:41:21.813Z,1009.8
2018-04-26T11:42:22.457Z,1009.8
2018-04-26T11:43:23.102Z,1009.7
2018-04-26T11:44:23.843Z,1009.8
2018-04-26T11:45:24.491Z,1009.8
2018-04-26T11:46:25.128Z,1009.7
2018-04-26T11:47:25.770Z,1009.8
2018-04-26T11:48:26.412Z,1009.7
2018-04-26T11:49:27.055Z,1009.7
2018-04-26T11:50:27.702Z,1009.7
2018-04-26T11:51:28.342Z,1009.8
2018-04-26T11:52:29.071Z,1009.8
2018-04-26T11:53:29.627Z,1009.8
2018-04-26T11:54:30.270Z,1009.7
2018-04-26T11:55:31.013Z,1009.7
2018-04-26T11:56:31.655Z,1009.8
2018-04-26T11:57:32.297Z,1009.7
2018-04-26T11:58:33.040Z,1009.7
2018-04-26T11:59:33.679Z,1009.8
2018-04-26T12:00:34.320Z,1009.9
2018-04-26T12:01:35.161Z,1009.9
2018-04-26T12:02:35.917Z,1009.9
2018-04-26T12:03:36.649Z,1009.9
2018-04-26T12:04:37.290Z,1010.1
2018-04-26T12:05:37.938Z,1010.3
2018-04-26T12:06:38.677Z,1010.2
2018-04-26T12:07:39.337Z,1010.3
2018-04-26T12:08:39.969Z,1010.2
2018-04-26T12:09:40.616Z,1010.1
2018-04-26T12:10:41.260Z,1010.2
2018-04-26T12:11:41.901Z,1010.1
2018-04-26T12:12:42.547Z,1010.2
2018-04-26T12:13:43.188Z,1010.3
2018-04-26T12:14:43.831Z,1010.2
2018-04-26T12:15:44.473Z,1010.1
2018-04-26T12:16:45.114Z,1010.0
2018-04-26T12:17:45.758Z,1010.0
2018-04-26T12:18:46.399Z,1010.0
2018-04-26T12:19:47.140Z,1010.1
2018-04-26T12:20:47.783Z,1010.2
2018-04-26T12:21:48.428Z,1010.3
2018-04-26T12:22:49.067Z,1010.3
2018-04-26T12:23:49.710Z,1010.5
2018-04-26T12:24:50.551Z,1010.2
2018-04-26T12:25:51.192Z,1010.1
2018-04-26T12:26:51.831Z,1010.0
2018-04-26T12:27:52.580Z,1010.0
2018-04-26T12:28:53.319Z,1010.0
2018-04-26T12:29:53.961Z,1010.0
2018-04-26T12:30:54.605Z,1010.0
2018-04-26T12:31:55.244Z,1009.9
2018-04-26T12:32:55.889Z,1009.9
2018-04-26T12:33:57.180Z,1009.9
2018-04-26T12:34:57.821Z,1009.9
2018-04-26T12:35:58.562Z,1009.9
2018-04-26T12:36:59.456Z,1009.9